Time;durP1;ratioP1;P1;durP2;ratioP2;P2;SDS_P1;SDS_P2;PMS_P1;PMS_P2;Temp;Humidity;BMP_temperature;BMP_pressure;BME280_temperature;BME280_humidity;BME280_pressure;Samples;Min_cycle;Max_cycle;Signal;HPM_P1;HPM_P2
2021/04/26 00:02:37;;;;;;;11.83;6.63;;;;;;;7.68;100.00;94726.31;10408011;28;20120;-75
2021/04/26 00:07:38;;;;;;;22.77;7.07;;;;;;;7.66;100.00;94727.63;10408239;28;20033;-76
2021/04/26 00:12:39;;;;;;;20.27;11.00;;;;;;;7.65;100.00;94737.50;10408076;28;20074;-75
2021/04/26 00:17:39;;;;;;;12.48;7.00;;;;;;;7.55;100.00;94745.47;10407708;28;20116;-76
2021/04/26 00:22:39;;;;;;;13.68;7.10;;;;;;;7.49;100.00;94739.25;10407499;28;20055;-75
2021/04/26 00:27:40;;;;;;;9.07;6.83;;;;;;;7.46;100.00;94749.66;10407317;28;20017;-75
2021/04/26 00:32:40;;;;;;;13.45;6.65;;;;;;;7.46;100.00;94758.47;10388690;28;20032;-75
2021/04/26 00:37:42;;;;;;;13.15;7.55;;;;;;;7.42;100.00;94757.34;10404670;28;20117;-75
2021/04/26 00:42:43;;;;;;;9.27;6.20;;;;;;;7.32;100.00;94766.06;10406399;28;20056;-75
2021/04/26 00:47:45;;;;;;;10.65;7.25;;;;;;;7.29;100.00;94777.28;10405526;28;20052;-75
2021/04/26 00:52:49;;;;;;;12.63;7.25;;;;;;;7.35;100.00;94767.44;10406332;28;20036;-75
2021/04/26 00:57:49;;;;;;;13.95;7.90;;;;;;;7.19;100.00;94769.16;10406964;28;20068;-75
2021/04/26 01:02:50;;;;;;;15.93;6.47;;;;;;;7.15;100.00;94778.72;10406574;28;20604;-75
2021/04/26 01:07:51;;;;;;;11.48;7.13;;;;;;;7.16;100.00;94794.53;10406528;28;20117;-75
2021/04/26 01:13:13;;;;;;;15.07;9.18;;;;;;;7.25;100.00;94794.06;10405180;28;20025;-75
2021/04/26 01:18:48;;;;;;;15.68;10.00;;;;;;;7.22;100.00;94792.72;10405393;28;20041;-75
2021/04/26 01:24:26;;;;;;;24.23;11.38;;;;;;;7.20;100.00;94794.84;10384955;28;20038;-75
2021/04/26 01:29:55;;;;;;;21.13;10.30;;;;;;;7.21;100.00;94804.44;10406398;28;20082;-75
2021/04/26 01:34:58;;;;;;;16.10;9.82;;;;;;;7.06;100.00;94806.94;10406492;28;20057;-75
2021/04/26 01:40:00;;;;;;;18.13;10.43;;;;;;;6.87;100.00;94793.91;10411324;28;20025;-75
2021/04/26 01:45:07;;;;;;;20.75;10.55;;;;;;;6.65;100.00;94780.53;10413489;28;20057;-74
2021/04/26 01:50:10;;;;;;;20.73;11.65;;;;;;;6.53;100.00;94790.50;10413299;28;20041;-75
2021/04/26 01:55:12;;;;;;;19.40;12.45;;;;;;;6.45;100.00;94787.22;10413515;28;20040;-75
2021/04/26 02:00:18;;;;;;;22.33;11.27;;;;;;;6.33;100.00;94783.81;10412629;28;20029;-75
2021/04/26 02:05:20;;;;;;;20.17;12.60;;;;;;;6.39;100.00;94788.19;10412731;28;20045;-75
2021/04/26 02:10:24;;;;;;;26.27;13.88;;;;;;;6.24;100.00;94802.13;10412280;28;20488;-75
2021/04/26 02:15:28;;;;;;;19.88;12.23;;;;;;;6.10;100.00;94785.63;10412294;28;20036;-75
2021/04/26 02:20:29;;;;;;;21.42;12.23;;;;;;;5.96;100.00;94785.13;10412217;28;20493;-75
2021/04/26 02:25:30;;;;;;;20.52;12.40;;;;;;;5.87;100.00;94783.91;10411981;28;20105;-75
2021/04/26 02:30:31;;;;;;;23.63;13.20;;;;;;;5.92;100.00;94784.00;10411886;28;20018;-75
2021/04/26 02:35:37;;;;;;;24.05;12.50;;;;;;;5.87;100.00;94783.91;10411858;28;20029;-75
2021/04/26 02:40:51;;;;;;;22.58;12.23;;;;;;;5.81;100.00;94788.34;10411615;28;20110;-75
2021/04/26 02:45:55;;;;;;;22.17;12.38;;;;;;;5.67;100.00;94789.72;10411059;28;20111;-76
2021/04/26 02:50:57;;;;;;;21.45;12.77;;;;;;;5.66;100.00;94790.75;10409908;28;20025;-76
2021/04/26 02:56:04;;;;;;;21.63;14.38;;;;;;;5.74;100.00;94793.03;10411032;28;20032;-77
2021/04/26 03:01:07;;;;;;;28.77;13.90;;;;;;;5.76;100.00;94798.13;10418443;28;20033;-77
2021/04/26 03:06:09;;;;;;;24.20;13.15;;;;;;;5.69;100.00;94790.25;10410415;28;20128;-76
2021/04/26 03:11:15;;;;;;;24.58;13.27;;;;;;;5.79;100.00;94803.78;10410396;28;20029;-76
2021/04/26 03:16:16;;;;;;;22.30;13.77;;;;;;;5.80;100.00;94801.91;10409978;28;20037;-77
2021/04/26 03:21:17;;;;;;;24.83;14.05;;;;;;;5.86;100.00;94811.66;10408522;28;20052;-76
2021/04/26 03:26:18;;;;;;;21.80;13.68;;;;;;;5.91;100.00;94819.72;10408085;28;20029;-76
2021/04/26 03:31:19;;;;;;;19.15;13.93;;;;;;;5.82;100.00;94829.97;10408444;28;20022;-76
2021/04/26 03:36:22;;;;;;;26.45;14.82;;;;;;;5.81;100.00;94838.22;10409124;28;20025;-76
2021/04/26 03:41:23;;;;;;;26.83;14.80;;;;;;;5.76;100.00;94843.44;10408765;28;20396;-76
2021/04/26 03:46:23;;;;;;;27.52;14.25;;;;;;;5.70;100.00;94834.56;10408699;28;20049;-76
2021/04/26 03:51:24;;;;;;;20.80;13.90;;;;;;;5.84;100.00;94845.72;10407303;28;20096;-76
2021/04/26 03:56:24;;;;;;;26.57;14.33;;;;;;;5.89;100.00;94853.00;10406567;28;20488;-77
2021/04/26 04:01:24;;;;;;;20.93;14.40;;;;;;;6.08;100.00;94846.41;10406202;28;20283;-77
2021/04/26 04:06:25;;;;;;;31.47;12.90;;;;;;;6.13;100.00;94846.50;10406466;28;20022;-76
2021/04/26 04:11:25;;;;;;;26.73;14.52;;;;;;;6.19;100.00;94852.75;10406345;28;20275;-76
2021/04/26 04:16:29;;;;;;;29.48;14.05;;;;;;;6.18;100.00;94861.00;10406143;28;20489;-78
2021/04/26 04:21:30;;;;;;;39.10;16.25;;;;;;;6.21;100.00;94865.84;10388790;28;20112;-76
2021/04/26 04:26:30;;;;;;;32.85;14.88;;;;;;;6.28;100.00;94883.31;10406069;28;20036;-76
2021/04/26 04:31:31;;;;;;;29.23;14.10;;;;;;;6.26;100.00;94876.59;10405740;28;20022;-76
2021/04/26 04:36:31;;;;;;;29.93;15.30;;;;;;;6.35;100.00;94877.00;10405477;28;20029;-77
2021/04/26 04:41:32;;;;;;;39.65;17.77;;;;;;;6.46;100.00;94876.09;10388475;28;20018;-75
2021/04/26 04:46:32;;;;;;;39.60;19.13;;;;;;;6.55;100.00;94882.66;10407074;28;20025;-76
2021/04/26 04:51:33;;;;;;;36.00;16.93;;;;;;;6.79;100.00;94882.47;10407095;28;20640;-76
2021/04/26 04:56:33;;;;;;;26.83;14.67;;;;;;;7.22;100.00;94880.13;10388368;28;20280;-76
2021/04/26 05:01:34;;;;;;;29.23;16.63;;;;;;;8.13;100.00;94881.38;10405007;28;20276;-78
2021/04/26 05:06:34;;;;;;;28.33;12.65;;;;;;;9.10;100.00;94881.31;10405285;28;20099;-77
2021/04/26 05:11:34;;;;;;;18.97;11.30;;;;;;;10.04;100.00;94877.88;10405523;28;20108;-77
2021/04/26 05:16:43;;;;;;;25.15;13.50;;;;;;;9.81;100.00;94879.16;10412727;28;20026;-76
2021/04/26 05:21:43;;;;;;;24.23;13.13;;;;;;;10.92;95.30;94889.47;10412780;28;20038;-76
2021/04/26 05:26:44;;;;;;;28.98;12.73;;;;;;;11.55;86.88;94891.72;10411827;28;20041;-76
2021/04/26 05:31:44;;;;;;;26.93;12.37;;;;;;;11.46;83.84;94896.88;10412532;28;20025;-77
2021/04/26 05:36:45;;;;;;;22.47;11.83;;;;;;;12.44;77.98;94882.09;10411432;28;20037;-76
2021/04/26 05:41:45;;;;;;;24.45;12.35;;;;;;;13.42;72.93;94865.81;10418403;28;20078;-77
2021/04/26 05:46:46;;;;;;;18.65;10.18;;;;;;;14.07;60.03;94867.19;10411867;28;20044;-77
2021/04/26 05:51:46;;;;;;;17.23;9.93;;;;;;;14.92;60.40;94863.75;10412372;28;20021;-76
2021/04/26 05:56:47;;;;;;;16.60;9.97;;;;;;;15.41;57.40;94867.72;10412480;28;20025;-77
2021/04/26 06:01:47;;;;;;;23.70;9.85;;;;;;;15.75;52.90;94863.78;10412413;28;20298;-76
2021/04/26 06:06:48;;;;;;;23.23;10.93;;;;;;;16.92;51.57;94847.91;10412320;28;20140;-78
2021/04/26 06:11:48;;;;;;;18.17;11.93;;;;;;;16.73;50.28;94845.34;10412217;28;20032;-77
2021/04/26 06:16:48;;;;;;;28.53;10.47;;;;;;;16.92;47.97;94848.69;10393982;28;20021;-77
2021/04/26 06:21:49;;;;;;;33.63;11.50;;;;;;;17.52;46.88;94856.66;10410930;28;20021;-77
2021/04/26 06:26:49;;;;;;;17.57;10.83;;;;;;;18.37;45.37;94848.19;10409376;28;20022;-77
2021/04/26 06:31:49;;;;;;;18.90;9.67;;;;;;;18.97;43.74;94853.16;10409962;28;20121;-77
2021/04/26 06:36:50;;;;;;;17.13;10.40;;;;;;;19.52;41.23;94846.06;10410360;28;20037;-77
2021/04/26 06:41:50;;;;;;;29.33;12.17;;;;;;;20.11;40.38;94845.31;10392917;28;20033;-77
2021/04/26 06:46:50;;;;;;;20.80;10.47;;;;;;;19.96;41.21;94843.97;10410556;28;20068;-76
2021/04/26 06:51:51;;;;;;;24.63;12.73;;;;;;;20.52;38.09;94834.75;10410556;28;20029;-75
2021/04/26 06:56:51;;;;;;;22.40;11.67;;;;;;;21.57;37.53;94812.59;10410218;28;20112;-76
2021/04/26 07:01:52;;;;;;;18.65;9.48;;;;;;;22.39;35.00;94815.50;10409803;28;20736;-77
2021/04/26 07:06:52;;;;;;;21.87;11.03;;;;;;;22.38;34.97;94820.19;10409691;28;20025;-76
2021/04/26 07:11:54;;;;;;;23.53;11.50;;;;;;;22.47;34.50;94817.31;10409717;28;20507;-76
2021/04/26 07:16:54;;;;;;;22.98;10.85;;;;;;;23.31;34.84;94813.72;10409500;28;20087;-76
2021/04/26 07:21:54;;;;;;;21.03;10.57;;;;;;;23.97;33.10;94816.09;10408892;28;20043;-76
2021/04/26 07:26:55;;;;;;;19.10;10.80;;;;;;;24.26;32.21;94823.03;10409177;28;20119;-76
2021/04/26 07:31:55;;;;;;;19.02;11.35;;;;;;;24.72;31.52;94820.50;10391709;28;20056;-76
2021/04/26 07:36:58;;;;;;;17.70;11.40;;;;;;;24.62;32.68;94814.81;10408145;28;20036;-77
2021/04/26 07:41:59;;;;;;;23.80;10.75;;;;;;;25.50;30.38;94821.56;10408407;28;20559;-77
2021/04/26 07:47:00;;;;;;;19.15;10.13;;;;;;;25.90;30.09;94815.53;10408675;28;20033;-77
2021/04/26 07:52:01;;;;;;;21.67;10.77;;;;;;;26.18;29.57;94817.16;10408609;28;20026;-77
2021/04/26 07:57:02;;;;;;;20.40;10.20;;;;;;;26.74;29.07;94810.03;10407752;28;20177;-76
2021/04/26 08:02:03;;;;;;;18.53;9.87;;;;;;;26.61;29.77;94797.59;10407377;28;20416;-77
2021/04/26 08:07:03;;;;;;;21.20;10.03;;;;;;;26.49;29.28;94784.88;10406189;28;20037;-77
2021/04/26 08:12:04;;;;;;;30.07;11.27;;;;;;;26.61;29.46;94775.56;10408461;28;20292;-77
2021/04/26 08:17:04;;;;;;;17.13;10.13;;;;;;;26.36;28.64;94787.09;10409135;28;20034;-77
2021/04/26 08:22:06;;;;;;;16.90;8.77;;;;;;;26.92;27.48;94788.16;10408188;28;20033;-77
2021/04/26 08:27:06;;;;;;;16.25;7.93;;;;;;;28.18;26.98;94782.19;10408658;28;20280;-77
2021/04/26 08:32:06;;;;;;;12.50;6.57;;;;;;;28.46;24.56;94785.06;10408609;28;20038;-77
2021/04/26 08:37:07;;;;;;;18.03;8.40;;;;;;;28.17;25.08;94781.38;10408713;28;20647;-77
2021/04/26 08:42:08;;;;;;;10.10;5.53;;;;;;;29.05;22.74;94786.88;10408304;28;20061;-77
2021/04/26 08:47:09;;;;;;;10.18;5.80;;;;;;;29.60;23.65;94785.03;10409697;28;20056;-77
2021/04/26 08:52:09;;;;;;;12.43;5.20;;;;;;;29.48;24.68;94784.22;10416612;28;20025;-77
2021/04/26 08:57:10;;;;;;;22.53;5.87;;;;;;;29.87;24.04;94779.13;10416453;28;20493;-78
2021/04/26 09:02:12;;;;;;;13.00;5.00;;;;;;;29.17;22.04;94779.44;10416134;28;20029;-77
2021/04/26 09:07:12;;;;;;;13.50;4.47;;;;;;;30.38;22.06;94777.84;10416037;28;20049;-77
2021/04/26 09:12:33;;;;;;;9.98;5.18;;;;;;;31.71;20.93;94765.28;10415932;28;20053;-77
2021/04/26 09:17:43;;;;;;;9.95;5.10;;;;;;;31.78;20.22;94770.00;10415688;28;20068;-76
2021/04/26 09:22:57;;;;;;;5.13;3.58;;;;;;;31.56;20.13;94755.47;10415358;28;20102;-76
2021/04/26 09:28:13;;;;;;;11.30;3.53;;;;;;;31.80;18.56;94756.47;10415695;28;20400;-77
2021/04/26 09:33:26;;;;;;;5.88;3.42;;;;;;;31.84;18.80;94751.66;10415274;28;20025;-77
2021/04/26 09:38:29;;;;;;;6.20;3.63;;;;;;;32.06;17.33;94755.03;10397062;28;20029;-77
2021/04/26 09:43:30;;;;;;;6.25;3.33;;;;;;;30.79;17.63;94746.78;10414418;28;20483;-77
2021/04/26 09:48:32;;;;;;;11.30;3.17;;;;;;;31.13;17.22;94734.34;10414175;28;20029;-77
2021/04/26 09:53:38;;;;;;;8.75;3.75;;;;;;;32.26;17.82;94735.00;10414867;28;20483;-78
2021/04/26 09:58:40;;;;;;;;;;;;;;;30.46;18.05;94728.72;10414303;28;20454;-78
2021/04/26 10:03:40;;;;;;;9.23;3.17;;;;;;;31.14;18.16;94714.50;10414335;28;19948;-78
2021/04/26 10:08:49;;;;;;;7.70;3.70;;;;;;;31.86;16.68;94711.16;10413917;28;20053;-78
2021/04/26 10:13:58;;;;;;;4.28;2.60;;;;;;;33.45;16.10;94711.97;10413355;28;20021;-78
2021/04/26 10:19:00;;;;;;;6.57;3.15;;;;;;;34.55;15.55;94707.63;10413458;28;20036;-78
2021/04/26 10:24:18;;;;;;;7.35;2.67;;;;;;;33.41;16.94;94693.72;10413221;28;20025;-77
2021/04/26 10:29:26;;;;;;;7.32;3.42;;;;;;;34.62;15.79;94681.56;10413120;28;20473;-78
2021/04/26 10:34:27;;;;;;;8.65;3.17;;;;;;;33.86;15.62;94671.09;10423137;28;20112;-78
2021/04/26 10:39:31;;;;;;;8.80;3.17;;;;;;;34.24;15.62;94660.41;10412481;28;20061;-78
2021/04/26 10:44:40;;;;;;;7.13;2.95;;;;;;;34.54;15.27;94650.22;10412070;28;20045;-78
2021/04/26 10:49:42;;;;;;;6.18;3.17;;;;;;;33.11;15.28;94653.59;10394342;28;20117;-78
2021/04/26 10:54:42;;;;;;;9.25;3.20;;;;;;;33.95;16.10;94642.63;10412807;28;20086;-78
2021/04/26 10:59:43;;;;;;;7.53;3.07;;;;;;;33.31;15.87;94636.97;10411635;28;20038;-78
2021/04/26 11:05:18;;;;;;;7.90;3.33;;;;;;;30.73;18.33;94639.41;10411679;28;20037;-78
2021/04/26 11:10:37;;;;;;;16.50;3.58;;;;;;;29.22;19.33;94638.69;10410645;28;20022;-77
2021/04/26 11:15:37;;;;;;;6.15;4.20;;;;;;;27.31;19.75;94637.16;10411444;28;20103;-77
2021/04/26 11:20:39;;;;;;;8.23;4.30;;;;;;;24.90;22.86;94631.16;10410683;28;20129;-77
2021/04/26 11:25:40;;;;;;;8.68;4.50;;;;;;;24.21;24.84;94631.06;10410605;28;20034;-77
2021/04/26 11:30:51;;;;;;;8.95;4.18;;;;;;;23.15;23.88;94623.75;10410588;28;20143;-76
2021/04/26 11:36:27;;;;;;;6.43;3.85;;;;;;;23.19;25.34;94605.44;10410326;28;20040;-76
2021/04/26 11:41:41;;;;;;;9.02;4.07;;;;;;;22.53;26.89;94597.59;10313044;28;20055;-77
2021/04/26 11:46:41;;;;;;;5.10;4.00;;;;;;;22.22;26.16;94598.34;10369345;28;20077;-77
2021/04/26 11:51:44;;;;;;;12.90;3.93;;;;;;;22.26;26.17;94592.97;10368517;28;20037;-77
2021/04/26 11:57:07;;;;;;;13.65;4.40;;;;;;;22.14;25.97;94586.41;10367155;28;20034;-77
2021/04/26 12:02:08;;;;;;;6.80;4.07;;;;;;;22.07;25.79;94579.97;10350327;28;20025;-77
2021/04/26 12:07:11;;;;;;;7.57;3.85;;;;;;;21.68;25.08;94589.50;10368754;28;20034;-78
2021/04/26 12:12:12;;;;;;;9.93;4.28;;;;;;;21.34;25.70;94575.19;10368373;28;20374;-77
2021/04/26 12:17:33;;;;;;;8.33;3.63;;;;;;;21.60;25.34;94562.25;10368464;28;20038;-77
2021/04/26 12:22:34;;;;;;;13.10;3.80;;;;;;;21.59;25.49;94561.47;10367297;28;20359;-77
2021/04/26 12:27:34;;;;;;;10.23;3.88;;;;;;;21.27;25.70;94550.38;10368215;28;20063;-77
2021/04/26 12:32:35;;;;;;;9.23;3.72;;;;;;;21.39;26.58;94524.16;10368040;28;20388;-77
2021/04/26 12:37:38;;;;;;;9.73;3.92;;;;;;;21.32;27.74;94520.09;10367634;28;20481;-77
2021/04/26 12:42:39;;;;;;;7.10;3.60;;;;;;;21.38;28.48;94519.81;10376737;28;20045;-77
2021/04/26 12:47:51;;;;;;;8.45;3.40;;;;;;;20.87;26.36;94515.63;10408142;28;20766;-77
2021/04/26 12:53:22;;;;;;;9.68;4.38;;;;;;;20.69;27.18;94517.81;10408119;28;20032;-77
2021/04/26 12:58:26;;;;;;;10.05;4.30;;;;;;;20.28;27.47;94511.44;10408126;28;20037;-77
2021/04/26 13:03:32;;;;;;;8.40;4.43;;;;;;;20.39;27.46;94509.84;10407840;28;20034;-77
2021/04/26 13:08:34;;;;;;;11.23;3.85;;;;;;;20.89;27.05;94496.97;10408074;28;20095;-77
2021/04/26 13:13:54;;;;;;;12.80;4.13;;;;;;;21.30;27.07;94481.34;10407543;28;20026;-77
2021/04/26 13:18:59;;;;;;;6.07;3.38;;;;;;;21.61;26.80;94481.81;10407583;28;20403;-77
2021/04/26 13:24:14;;;;;;;6.30;3.67;;;;;;;21.77;26.27;94479.91;10409553;28;20030;-77
2021/04/26 13:29:16;;;;;;;5.13;3.50;;;;;;;21.81;26.68;94471.78;10407193;28;20029;-77
2021/04/26 13:34:18;;;;;;;7.80;3.15;;;;;;;21.64;26.60;94479.19;10409704;28;20036;-77
2021/04/26 13:39:20;;;;;;;9.93;3.03;;;;;;;21.49;27.78;94471.72;10414352;28;20479;-77
2021/04/26 13:44:20;;;;;;;4.80;3.72;;;;;;;21.25;27.30;94459.75;10414456;28;20112;-76
2021/04/26 13:49:20;;;;;;;9.18;3.15;;;;;;;21.16;27.08;94470.03;10414119;28;20075;-77
2021/04/26 13:54:21;;;;;;;12.00;4.47;;;;;;;21.03;27.57;94461.09;10414614;28;20037;-77
2021/04/26 13:59:21;;;;;;;8.90;4.97;;;;;;;20.96;27.93;94458.16;10413435;28;20123;-77
2021/04/26 14:04:22;;;;;;;7.23;3.90;;;;;;;20.88;27.58;94457.13;10413527;28;20591;-78
2021/04/26 14:09:22;;;;;;;11.65;3.50;;;;;;;20.87;27.86;94449.28;10413010;28;20035;-76
2021/04/26 14:14:22;;;;;;;12.10;4.53;;;;;;;20.91;27.94;94442.00;10412322;28;20111;-77
2021/04/26 14:19:23;;;;;;;7.53;4.03;;;;;;;20.87;27.64;94430.94;10412608;28;20034;-77
2021/04/26 14:24:25;;;;;;;10.93;3.80;;;;;;;20.77;28.13;94428.72;10411584;28;20380;-78
2021/04/26 14:29:26;;;;;;;8.63;3.75;;;;;;;20.86;28.56;94421.19;10412198;28;20541;-76
2021/04/26 14:34:26;;;;;;;8.32;3.47;;;;;;;20.64;27.16;94427.94;10411687;28;20152;-77
2021/04/26 14:39:28;;;;;;;11.57;3.53;;;;;;;20.71;27.34;94419.97;10411466;28;20026;-77
2021/04/26 14:44:28;;;;;;;7.32;3.38;;;;;;;20.80;27.15;94419.81;10393562;28;20302;-77
2021/04/26 14:49:29;;;;;;;8.52;3.28;;;;;;;20.65;28.01;94411.19;10411170;28;20029;-77
2021/04/26 14:54:29;;;;;;;7.47;3.33;;;;;;;20.56;28.12;94415.97;10411830;28;20087;-77
2021/04/26 14:59:29;;;;;;;7.57;3.20;;;;;;;20.54;29.14;94398.34;10410742;28;20334;-77
2021/04/26 15:04:30;;;;;;;17.90;4.77;;;;;;;20.66;29.11;94404.56;10411097;28;20048;-77
2021/04/26 15:09:30;;;;;;;13.07;3.70;;;;;;;20.45;29.03;94407.47;10410725;28;20063;-77
2021/04/26 15:14:31;;;;;;;9.17;3.30;;;;;;;20.42;29.01;94401.91;10410852;28;20053;-77
2021/04/26 15:19:31;;;;;;;7.15;3.35;;;;;;;20.29;28.46;94391.03;10410594;28;20095;-77
2021/04/26 15:24:31;;;;;;;12.07;4.43;;;;;;;20.04;29.08;94387.53;10409968;28;20061;-77
2021/04/26 15:29:37;;;;;;;12.10;3.73;;;;;;;20.05;29.02;94383.66;10410057;28;20033;-76
2021/04/26 15:34:39;;;;;;;9.48;5.78;;;;;;;19.96;29.41;94375.56;10409906;28;20029;-76
2021/04/26 15:39:40;;;;;;;15.30;3.47;;;;;;;19.80;29.67;94378.22;10409803;28;20079;-77
2021/04/26 15:44:42;;;;;;;11.20;3.35;;;;;;;20.07;29.42;94358.75;10391951;28;20042;-77
2021/04/26 15:49:42;;;;;;;3.38;2.70;;;;;;;20.02;28.92;94357.06;10409292;28;20029;-77
2021/04/26 15:54:42;;;;;;;5.90;2.90;;;;;;;20.00;29.12;94362.06;10409599;28;20049;-77
2021/04/26 15:59:43;;;;;;;15.60;2.90;;;;;;;19.80;27.48;94353.66;10407520;28;20439;-77
2021/04/26 16:04:43;;;;;;;10.17;2.63;;;;;;;19.67;27.59;94351.25;10390217;28;20037;-77
2021/04/26 16:09:44;;;;;;;4.07;2.77;;;;;;;19.52;27.81;94341.81;10407613;28;20036;-77
2021/04/26 16:14:45;;;;;;;5.15;2.40;;;;;;;19.41;27.47;94350.44;10410371;28;20268;-77
2021/04/26 16:19:45;;;;;;;5.93;2.80;;;;;;;19.20;28.30;94342.34;10407556;28;20844;-76
2021/04/26 16:24:46;;;;;;;7.20;2.70;;;;;;;19.20;28.21;94352.44;10406954;28;20347;-77
2021/04/26 16:29:46;;;;;;;5.65;3.50;;;;;;;19.04;28.49;94349.56;10407163;28;20300;-77
2021/04/26 16:34:46;;;;;;;5.70;2.47;;;;;;;19.00;28.48;94340.47;10406949;28;20464;-77
2021/04/26 16:39:48;;;;;;;9.43;3.60;;;;;;;18.81;28.43;94349.09;10407093;28;20291;-77
2021/04/26 16:44:49;;;;;;;5.88;2.78;;;;;;;18.62;28.77;94347.69;10406666;28;20299;-77
2021/04/26 16:49:50;;;;;;;9.32;3.55;;;;;;;18.45;28.98;94343.19;10406769;28;20390;-76
2021/04/26 16:54:50;;;;;;;6.60;2.70;;;;;;;18.27;29.46;94348.75;10406857;28;20033;-77
2021/04/26 16:59:51;;;;;;;12.45;2.90;;;;;;;18.10;29.62;94352.41;10406912;28;20033;-78
2021/04/26 17:04:51;;;;;;;6.32;3.50;;;;;;;17.98;30.26;94355.03;10406794;28;20473;-78
2021/04/26 17:09:52;;;;;;;10.23;4.87;;;;;;;17.81;30.71;94350.47;10410347;28;20034;-78
2021/04/26 17:14:52;;;;;;;8.80;4.10;;;;;;;17.65;31.81;94357.59;10414516;28;20095;-78
2021/04/26 17:19:53;;;;;;;5.72;3.53;;;;;;;17.48;31.95;94344.88;10414223;28;20034;-77
2021/04/26 17:24:53;;;;;;;4.93;2.90;;;;;;;17.30;32.48;94346.88;10413853;28;20041;-77
2021/04/26 17:29:54;;;;;;;8.82;3.78;;;;;;;17.21;32.81;94347.69;10413803;28;20040;-78
2021/04/26 17:34:54;;;;;;;11.70;3.70;;;;;;;17.12;33.61;94351.56;10412981;28;20025;-78
2021/04/26 17:39:55;;;;;;;6.15;3.08;;;;;;;17.02;34.25;94342.66;10411574;28;20037;-78
2021/04/26 17:44:55;;;;;;;16.90;5.13;;;;;;;16.97;35.10;94333.84;10411408;28;20053;-77
2021/04/26 17:49:56;;;;;;;7.73;4.00;;;;;;;16.99;35.40;94331.63;10411420;28;20032;-77
2021/04/26 17:54:56;;;;;;;10.85;3.63;;;;;;;16.99;36.10;94324.28;10412450;28;20029;-76
2021/04/26 17:59:57;;;;;;;6.60;3.43;;;;;;;16.95;37.17;94323.31;10411645;28;20037;-77
2021/04/26 18:04:57;;;;;;;6.53;3.63;;;;;;;16.99;37.82;94328.91;10412704;28;20056;-78
2021/04/26 18:09:57;;;;;;;8.23;3.33;;;;;;;17.08;37.74;94330.50;10412199;28;20275;-77
2021/04/26 18:14:58;;;;;;;8.27;3.63;;;;;;;17.13;37.67;94329.50;10403827;28;20454;-77
2021/04/26 18:19:58;;;;;;;7.00;3.20;;;;;;;17.14;38.32;94322.97;10370457;28;20034;-77
2021/04/26 18:24:59;;;;;;;7.03;3.40;;;;;;;17.07;37.71;94322.66;10371022;28;20359;-78
2021/04/26 18:29:59;;;;;;;7.03;3.67;;;;;;;17.03;38.08;94325.22;10370304;28;20354;-78
2021/04/26 18:35:00;;;;;;;14.95;4.32;;;;;;;16.95;37.65;94330.69;10370145;28;20280;-77
2021/04/26 18:40:03;;;;;;;6.05;3.25;;;;;;;16.63;37.13;94330.06;10370220;28;20037;-77
2021/04/26 18:45:31;;;;;;;8.00;4.03;;;;;;;16.37;36.97;94320.84;10369747;28;20046;-76
2021/04/26 18:50:32;;;;;;;5.25;3.10;;;;;;;16.15;37.37;94307.47;10369978;28;20109;-77
2021/04/26 18:55:33;;;;;;;6.78;3.30;;;;;;;16.00;37.63;94303.28;10369485;28;20556;-78
2021/04/26 19:00:33;;;;;;;10.35;3.45;;;;;;;15.88;38.05;94318.28;10369793;28;20433;-78
2021/04/26 19:05:34;;;;;;;6.47;4.37;;;;;;;15.71;38.71;94326.31;10369303;28;20030;-78
2021/04/26 19:10:35;;;;;;;7.10;3.38;;;;;;;15.64;39.04;94331.41;10368272;28;20038;-76
2021/04/26 19:15:35;;;;;;;13.25;3.75;;;;;;;15.72;39.46;94333.34;10367895;28;20026;-77
2021/04/26 19:20:35;;;;;;;5.90;3.70;;;;;;;15.70;39.08;94313.91;10368061;28;20018;-76
2021/04/26 19:25:36;;;;;;;13.73;3.92;;;;;;;15.65;39.21;94327.59;10368706;28;20071;-77
2021/04/26 19:30:36;;;;;;;6.83;3.70;;;;;;;15.63;39.84;94313.56;10366769;28;20022;-78
2021/04/26 19:35:37;;;;;;;7.30;4.75;;;;;;;15.52;39.76;94308.44;10367398;28;20379;-77
2021/04/26 19:40:38;;;;;;;6.35;3.85;;;;;;;15.61;40.05;94296.84;10367072;28;20503;-78
2021/04/26 19:45:46;;;;;;;13.93;5.60;;;;;;;15.64;40.35;94299.72;10366762;28;20542;-77
2021/04/26 19:50:48;;;;;;;9.00;4.20;;;;;;;15.73;41.64;94305.94;10367317;28;20393;-77
2021/04/26 19:55:49;;;;;;;9.75;4.00;;;;;;;15.71;43.33;94315.50;10367349;28;20492;-76
2021/04/26 20:00:50;;;;;;;13.65;4.65;;;;;;;15.80;42.76;94321.75;10367497;28;20025;-77
2021/04/26 20:05:51;;;;;;;9.93;4.68;;;;;;;15.84;43.83;94335.50;10367454;28;20452;-77
2021/04/26 20:10:51;;;;;;;7.97;4.63;;;;;;;15.82;43.67;94346.66;10366524;28;20032;-76
2021/04/26 20:15:52;;;;;;;12.20;4.45;;;;;;;15.84;46.68;94347.13;10367025;28;20030;-76
2021/04/26 20:20:52;;;;;;;9.32;4.55;;;;;;;16.08;46.83;94339.66;10366886;28;20025;-77
2021/04/26 20:25:53;;;;;;;9.18;4.55;;;;;;;16.20;47.70;94353.38;10366605;28;20547;-77
2021/04/26 20:30:53;;;;;;;20.57;4.87;;;;;;;16.17;49.34;94368.38;10366702;28;20018;-77
2021/04/26 20:35:54;;;;;;;5.15;4.40;;;;;;;16.04;51.58;94377.44;10366817;28;20117;-76
2021/04/26 20:40:54;;;;;;;6.95;3.88;;;;;;;16.02;53.90;94376.97;10366322;28;20034;-76
2021/04/26 20:45:54;;;;;;;7.78;4.80;;;;;;;15.69;58.75;94394.38;10378688;28;20045;-76
2021/04/26 20:50:55;;;;;;;7.53;4.87;;;;;;;15.23;76.03;94400.25;10379995;28;20033;-76
2021/04/26 20:55:55;;;;;;;8.30;4.80;;;;;;;14.66;86.78;94401.63;10379855;28;20380;-76
2021/04/26 21:00:56;;;;;;;6.40;4.33;;;;;;;14.41;81.68;94403.78;10379413;28;20469;-77
2021/04/26 21:05:56;;;;;;;8.07;3.85;;;;;;;14.68;76.87;94380.50;10362061;28;20026;-76
2021/04/26 21:10:57;;;;;;;7.40;3.93;;;;;;;14.79;70.36;94372.91;10379553;28;20400;-77
2021/04/26 21:15:57;;;;;;;5.72;4.35;;;;;;;14.99;73.82;94363.50;10379292;28;20137;-76
2021/04/26 21:20:57;;;;;;;9.57;3.93;;;;;;;15.08;73.16;94406.84;10379366;28;20026;-77
2021/04/26 21:25:58;;;;;;;7.65;4.40;;;;;;;15.22;75.79;94402.13;10379478;28;20771;-76
2021/04/26 21:30:58;;;;;;;8.80;4.30;;;;;;;15.19;72.89;94403.56;10379055;28;20519;-77
2021/04/26 21:35:59;;;;;;;5.20;3.80;;;;;;;15.31;71.88;94394.88;10379047;28;20034;-77
2021/04/26 21:40:59;;;;;;;7.43;4.17;;;;;;;15.34;72.48;94390.75;10378985;28;20032;-77
2021/04/26 21:45:59;;;;;;;10.87;4.70;;;;;;;15.29;78.55;94386.25;10419231;28;20045;-77
2021/04/26 21:51:00;;;;;;;4.70;4.05;;;;;;;15.37;79.45;94387.41;10419714;28;20037;-76
2021/04/26 21:56:00;;;;;;;10.10;4.72;;;;;;;15.40;76.66;94375.16;10415015;28;20032;-76
2021/04/26 22:01:01;;;;;;;5.93;4.03;;;;;;;15.35;74.54;94376.91;10413146;28;20033;-77
2021/04/26 22:06:03;;;;;;;8.07;4.70;;;;;;;15.41;74.17;94376.75;10412724;28;20276;-77
2021/04/26 22:11:04;;;;;;;6.93;4.25;;;;;;;15.47;73.76;94384.41;10412741;28;20021;-76
2021/04/26 22:16:05;;;;;;;6.25;4.70;;;;;;;15.44;73.38;94387.75;10395104;28;20145;-77
2021/04/26 22:21:05;;;;;;;4.85;3.83;;;;;;;15.44;66.57;94395.09;10412323;28;20036;-76
2021/04/26 22:26:06;;;;;;;6.15;4.03;;;;;;;15.40;71.06;94386.00;10412222;28;20109;-77
2021/04/26 22:31:06;;;;;;;10.98;4.88;;;;;;;15.38;77.99;94368.13;10412291;28;20547;-77
2021/04/26 22:36:09;;;;;;;14.60;5.40;;;;;;;15.36;81.53;94366.84;10411966;28;20483;-76
2021/04/26 22:41:09;;;;;;;12.75;5.63;;;;;;;15.28;85.12;94368.41;10393874;28;20284;-77
2021/04/26 22:46:10;;;;;;;11.37;7.00;;;;;;;14.99;89.36;94361.59;10410048;28;20049;-77
2021/04/26 22:51:11;;;;;;;13.15;5.88;;;;;;;14.93;85.35;94372.84;10392680;28;20809;-76
2021/04/26 22:56:11;;;;;;;14.50;6.97;;;;;;;14.73;80.85;94356.00;10411019;28;20037;-77
2021/04/26 23:01:12;;;;;;;17.40;7.27;;;;;;;14.57;74.89;94376.38;10393423;28;20080;-76
2021/04/26 23:06:12;;;;;;;7.75;4.07;;;;;;;14.26;62.77;94382.50;10409517;28;20264;-76
2021/04/26 23:11:13;;;;;;;7.20;4.15;;;;;;;14.31;61.26;94385.09;10410703;28;20020;-76
2021/04/26 23:16:13;;;;;;;7.72;4.20;;;;;;;14.13;60.10;94401.16;10409163;28;20474;-76